Time;durP1;ratioP1;P1;durP2;ratioP2;P2;SDS_P1;SDS_P2;PMS_P1;PMS_P2;Temp;Humidity;BMP_temperature;BMP_pressure;BME280_temperature;BME280_humidity;BME280_pressure;Samples;Min_cycle;Max_cycle;Signal;HPM_P1;HPM_P2
2021/06/29 00:00:42;;;;;;;11.95;10.73;;;18.10;99.90;;;;;;5025567;28;20210;-79
2021/06/29 00:03:09;;;;;;;14.57;10.90;;;18.10;99.90;;;;;;5025780;28;20635;-79
2021/06/29 00:05:40;;;;;;;11.65;10.45;;;18.10;99.90;;;;;;5009265;28;20227;-79
2021/06/29 00:08:07;;;;;;;14.95;10.05;;;18.10;99.90;;;;;;5019781;28;20491;-83
2021/06/29 00:10:35;;;;;;;14.93;12.40;;;18.10;99.90;;;;;;5012051;28;20222;-83
2021/06/29 00:13:05;;;;;;;11.73;10.25;;;18.10;99.90;;;;;;5024795;28;20219;-83
2021/06/29 00:15:32;;;;;;;17.35;11.65;;;18.00;99.90;;;;;;5028594;28;20204;-83
2021/06/29 00:17:59;;;;;;;14.32;11.32;;;18.00;99.90;;;;;;5009616;28;20211;-81
2021/06/29 00:20:26;;;;;;;14.88;11.85;;;18.00;99.90;;;;;;5010262;28;20191;-81
2021/06/29 00:22:53;;;;;;;15.27;11.73;;;18.00;99.90;;;;;;5008381;28;20215;-81
2021/06/29 00:25:20;;;;;;;18.65;13.00;;;18.00;99.90;;;;;;5008040;28;20223;-82
2021/06/29 00:27:48;;;;;;;16.42;11.55;;;18.00;99.90;;;;;;5008906;28;20222;-82
2021/06/29 00:30:17;;;;;;;12.88;11.30;;;18.00;99.90;;;;;;5010666;28;20222;-81
2021/06/29 00:32:45;;;;;;;13.02;11.60;;;18.00;99.90;;;;;;5009210;28;20235;-84
2021/06/29 00:35:12;;;;;;;13.57;11.88;;;17.90;99.90;;;;;;5009269;28;20497;-81
2021/06/29 00:37:40;;;;;;;13.40;11.75;;;17.90;99.90;;;;;;5009039;28;20214;-81
2021/06/29 00:40:08;;;;;;;14.50;11.32;;;17.90;99.90;;;;;;5007948;28;20214;-81
2021/06/29 00:42:36;;;;;;;13.27;11.23;;;17.90;99.90;;;;;;5008653;28;20214;-81
2021/06/29 00:45:04;;;;;;;17.77;12.30;;;17.90;99.90;;;;;;5007834;28;20242;-82
2021/06/29 00:47:32;;;;;;;14.35;11.68;;;17.90;99.90;;;;;;5007827;28;20289;-83
2021/06/29 00:49:59;;;;;;;14.48;12.02;;;17.90;99.90;;;;;;5007771;28;20757;-81
2021/06/29 00:52:29;;;;;;;13.55;11.30;;;17.90;99.90;;;;;;5007018;28;20213;-82
2021/06/29 00:54:56;;;;;;;16.85;12.95;;;17.80;99.90;;;;;;5006793;28;20476;-82
2021/06/29 00:57:23;;;;;;;18.10;12.63;;;17.80;99.90;;;;;;5005409;28;20243;-81
2021/06/29 00:59:50;;;;;;;14.45;12.75;;;17.80;99.90;;;;;;5005220;28;20200;-82
2021/06/29 01:02:16;;;;;;;16.17;12.95;;;17.80;99.90;;;;;;5019904;28;20211;-83
2021/06/29 01:04:45;;;;;;;14.70;11.73;;;17.80;99.90;;;;;;5020409;28;20215;-82
2021/06/29 01:07:13;;;;;;;18.63;14.13;;;17.80;99.90;;;;;;5004765;28;20604;-81
2021/06/29 01:09:41;;;;;;;16.90;12.65;;;17.80;99.90;;;;;;5005055;28;20211;-83
2021/06/29 01:12:09;;;;;;;19.65;12.80;;;17.70;99.90;;;;;;5004127;28;20192;-80
2021/06/29 01:14:36;;;;;;;13.82;11.68;;;17.70;99.90;;;;;;5009201;28;20206;-81
2021/06/29 01:17:04;;;;;;;18.88;12.52;;;17.70;99.90;;;;;;5024354;28;20195;-78
2021/06/29 01:19:37;;;;;;;16.33;12.38;;;17.70;99.90;;;;;;5022945;28;20210;-80
2021/06/29 01:22:07;;;;;;;15.38;10.82;;;17.70;99.90;;;;;;5003869;28;20191;-80
2021/06/29 01:24:35;;;;;;;14.50;11.85;;;17.70;99.90;;;;;;5004526;28;20596;-80
2021/06/29 01:27:15;;;;;;;13.88;11.13;;;17.70;99.90;;;;;;5003350;28;20388;-79
2021/06/29 01:29:51;;;;;;;19.77;12.88;;;17.70;99.90;;;;;;5025853;28;20267;-82
2021/06/29 01:32:18;;;;;;;16.40;12.07;;;17.70;99.90;;;;;;5007677;28;20210;-81
2021/06/29 01:34:46;;;;;;;16.65;11.70;;;17.70;99.90;;;;;;5006693;28;20243;-80
2021/06/29 01:37:15;;;;;;;14.95;11.75;;;17.70;99.90;;;;;;5006582;28;20207;-81
2021/06/29 01:39:52;;;;;;;14.57;10.55;;;17.70;99.90;;;;;;5004821;28;20207;-81
2021/06/29 01:42:19;;;;;;;17.55;12.15;;;17.70;99.90;;;;;;5004603;28;20298;-80
2021/06/29 01:44:45;;;;;;;20.00;11.45;;;17.70;99.90;;;;;;5005215;28;20222;-80
2021/06/29 01:47:22;;;;;;;18.95;11.05;;;17.70;99.90;;;;;;5006151;28;20235;-81
2021/06/29 01:49:48;;;;;;;24.77;11.80;;;17.70;99.90;;;;;;5025016;28;20201;-79
2021/06/29 01:52:17;;;;;;;14.82;10.15;;;17.70;99.90;;;;;;5023844;28;20221;-82
2021/06/29 01:54:45;;;;;;;19.15;11.77;;;17.70;99.90;;;;;;5024104;28;20194;-82
2021/06/29 01:57:15;;;;;;;15.20;10.68;;;17.70;99.90;;;;;;4373224;28;18629416;-83
2021/06/29 01:59:44;;;;;;;15.60;10.38;;;17.70;99.90;;;;;;5006482;28;20285;-82
2021/06/29 02:02:12;;;;;;;16.92;10.27;;;17.80;99.90;;;;;;5004781;28;20207;-84
2021/06/29 02:04:39;;;;;;;14.20;9.40;;;17.70;99.90;;;;;;5017404;28;20187;-82
2021/06/29 02:07:06;;;;;;;13.75;9.85;;;17.70;99.90;;;;;;5026116;28;20222;-82
2021/06/29 02:09:34;;;;;;;17.17;10.15;;;17.70;99.90;;;;;;5024377;28;20686;-81
2021/06/29 02:12:01;;;;;;;23.48;10.02;;;17.70;99.90;;;;;;5024772;28;20202;-80
2021/06/29 02:14:28;;;;;;;19.27;10.02;;;17.70;99.90;;;;;;5024465;28;20206;-83
2021/06/29 02:16:55;;;;;;;15.80;8.98;;;17.70;99.90;;;;;;5024063;28;20576;-83
2021/06/29 02:19:21;;;;;;;18.80;10.43;;;17.70;99.90;;;;;;5024628;28;20199;-80
2021/06/29 02:21:48;;;;;;;15.20;9.10;;;17.70;99.90;;;;;;5024689;28;20195;-81
2021/06/29 02:24:15;;;;;;;20.38;10.40;;;17.70;99.90;;;;;;5023665;28;20209;-82
2021/06/29 02:26:43;;;;;;;19.25;9.98;;;17.70;99.90;;;;;;5024274;28;20234;-81
2021/06/29 02:29:10;;;;;;;14.73;9.57;;;17.70;99.90;;;;;;5024082;28;20206;-79
2021/06/29 02:31:37;;;;;;;16.00;10.35;;;17.70;99.90;;;;;;5023490;28;20554;-79
2021/06/29 02:34:04;;;;;;;15.10;9.48;;;17.70;99.90;;;;;;5024471;28;20202;-79
2021/06/29 02:36:31;;;;;;;16.58;9.27;;;17.70;99.90;;;;;;5023855;28;20490;-79
2021/06/29 02:38:58;;;;;;;15.95;9.93;;;17.70;99.90;;;;;;5021706;28;20199;-79
2021/06/29 02:41:25;;;;;;;17.23;9.10;;;17.70;99.90;;;;;;5023203;28;20244;-79
2021/06/29 02:43:53;;;;;;;17.27;9.65;;;17.70;99.90;;;;;;5023142;28;20222;-80
2021/06/29 02:46:20;;;;;;;15.15;8.48;;;17.70;99.90;;;;;;5023362;28;20246;-80
2021/06/29 02:48:46;;;;;;;15.05;8.65;;;17.70;99.90;;;;;;5023600;28;20218;-80
2021/06/29 02:51:13;;;;;;;13.43;8.63;;;17.70;99.90;;;;;;5026389;28;20214;-81
2021/06/29 02:53:41;;;;;;;17.23;8.63;;;17.70;99.90;;;;;;5024395;28;20662;-80
2021/06/29 02:56:36;;;;;;;12.65;8.18;;;17.70;99.90;;;;;;5024001;28;20236;-80
2021/06/29 02:58:57;;;;;;;16.92;8.52;;;17.70;99.90;;;;;;5023429;28;20212;-80
2021/06/29 03:01:24;;;;;;;16.17;8.25;;;17.70;99.90;;;;;;5024147;28;20519;-81
2021/06/29 03:03:51;;;;;;;15.88;8.45;;;17.70;99.90;;;;;;5024479;28;20201;-79
2021/06/29 03:06:17;;;;;;;13.50;7.88;;;17.70;99.90;;;;;;5043039;28;20230;-81
2021/06/29 03:08:44;;;;;;;16.05;8.13;;;17.70;99.90;;;;;;5043210;28;20253;-79
2021/06/29 03:11:11;;;;;;;17.05;8.38;;;17.70;99.90;;;;;;5043407;28;20190;-79
2021/06/29 03:13:38;;;;;;;10.77;7.80;;;17.70;99.90;;;;;;5028761;28;20214;-81
2021/06/29 03:16:07;;;;;;;16.77;9.00;;;17.70;99.90;;;;;;5022680;28;20465;-82
2021/06/29 03:18:34;;;;;;;10.80;7.70;;;17.70;99.90;;;;;;5022813;28;20199;-80
2021/06/29 03:21:01;;;;;;;13.32;9.88;;;17.70;99.90;;;;;;5022519;28;20210;-80
2021/06/29 03:23:28;;;;;;;10.70;7.38;;;17.70;99.90;;;;;;5023209;28;21009;-79
2021/06/29 03:25:55;;;;;;;15.27;8.95;;;17.70;99.90;;;;;;5023055;28;20230;-82
2021/06/29 03:28:21;;;;;;;11.75;8.70;;;17.60;99.90;;;;;;5024531;28;20210;-79
2021/06/29 03:30:48;;;;;;;13.50;9.13;;;17.60;99.90;;;;;;5027862;28;20206;-79
2021/06/29 03:33:16;;;;;;;16.05;8.95;;;17.60;99.90;;;;;;5027241;28;20210;-79
2021/06/29 03:35:43;;;;;;;9.45;7.45;;;17.60;99.90;;;;;;5028149;28;20202;-81
2021/06/29 03:38:10;;;;;;;16.35;9.80;;;17.60;99.90;;;;;;5047680;28;20259;-81
2021/06/29 03:40:37;;;;;;;13.05;8.68;;;17.60;99.90;;;;;;5047411;28;20186;-79
2021/06/29 03:43:04;;;;;;;13.40;9.43;;;17.60;99.90;;;;;;5047116;28;21008;-80
2021/06/29 03:45:31;;;;;;;13.35;9.45;;;17.60;99.90;;;;;;5034285;28;20237;-80
2021/06/29 03:47:58;;;;;;;19.98;10.35;;;17.60;99.90;;;;;;5026755;28;20210;-82
2021/06/29 03:50:28;;;;;;;14.35;9.10;;;17.60;99.90;;;;;;5027351;28;20198;-82
2021/06/29 03:52:55;;;;;;;15.95;9.73;;;17.50;99.90;;;;;;5027710;28;20222;-80
2021/06/29 03:55:22;;;;;;;16.80;10.93;;;17.50;99.90;;;;;;5026391;28;20210;-78
2021/06/29 03:57:49;;;;;;;13.93;8.80;;;17.50;99.90;;;;;;5026644;28;20634;-78
2021/06/29 04:00:16;;;;;;;10.77;8.48;;;17.50;99.90;;;;;;5034443;28;20214;-79
2021/06/29 04:02:43;;;;;;;12.38;9.07;;;17.50;99.90;;;;;;5046554;28;20213;-78
2021/06/29 04:05:10;;;;;;;11.75;8.23;;;17.50;99.90;;;;;;5040194;28;20205;-80
2021/06/29 04:07:38;;;;;;;13.65;8.90;;;17.50;99.90;;;;;;5027524;28;20942;-80
2021/06/29 04:10:06;;;;;;;14.30;9.18;;;17.50;99.90;;;;;;5027953;28;20236;-79
2021/06/29 04:12:33;;;;;;;12.52;8.85;;;17.50;99.90;;;;;;5026998;28;20232;-80
2021/06/29 04:15:00;;;;;;;14.80;10.43;;;17.50;99.90;;;;;;5027242;28;20206;-80
2021/06/29 04:17:27;;;;;;;14.57;8.48;;;17.50;99.90;;;;;;5037666;28;20210;-81
2021/06/29 04:19:54;;;;;;;12.65;8.75;;;17.60;99.90;;;;;;5048196;28;20205;-79
2021/06/29 04:22:21;;;;;;;11.40;7.68;;;17.60;99.90;;;;;;5046484;28;20775;-81
2021/06/29 04:24:50;;;;;;;16.48;8.68;;;17.60;99.90;;;;;;5037392;28;20210;-83
2021/06/29 04:27:17;;;;;;;13.60;7.85;;;17.60;99.90;;;;;;5026186;28;20226;-81
2021/06/29 04:29:44;;;;;;;15.88;9.32;;;17.60;99.90;;;;;;5026151;28;20241;-80
2021/06/29 04:32:12;;;;;;;17.75;9.07;;;17.60;99.90;;;;;;5025950;28;20225;-80
2021/06/29 04:34:39;;;;;;;16.88;9.02;;;17.70;99.90;;;;;;5027299;28;20207;-80
2021/06/29 04:37:07;;;;;;;24.23;10.18;;;17.70;99.90;;;;;;5027178;28;20202;-79
2021/06/29 04:39:34;;;;;;;13.95;7.95;;;17.80;99.90;;;;;;5026056;28;20289;-80
2021/06/29 04:42:02;;;;;;;9.65;6.40;;;17.70;99.90;;;;;;5026502;28;20293;-82
2021/06/29 04:44:29;;;;;;;15.20;8.82;;;17.80;99.90;;;;;;5025845;28;20250;-81
2021/06/29 04:47:02;;;;;;;17.42;8.60;;;17.80;99.90;;;;;;5025954;28;20258;-82
2021/06/29 04:49:29;;;;;;;12.57;7.47;;;17.80;99.90;;;;;;5026380;28;20223;-81
2021/06/29 04:51:56;;;;;;;12.48;7.18;;;17.80;99.90;;;;;;5025697;28;20199;-81
2021/06/29 04:54:23;;;;;;;14.38;7.60;;;17.80;99.90;;;;;;5026086;28;20199;-80
2021/06/29 04:56:50;;;;;;;11.80;7.53;;;17.80;99.90;;;;;;5027054;28;20246;-81
2021/06/29 04:59:18;;;;;;;13.73;7.07;;;17.80;99.90;;;;;;5027318;28;20205;-81
2021/06/29 05:01:44;;;;;;;16.23;7.13;;;17.80;99.90;;;;;;5027104;28;20190;-83
2021/06/29 05:04:12;;;;;;;13.32;7.40;;;17.80;99.90;;;;;;5026232;28;20217;-83
2021/06/29 05:06:39;;;;;;;12.45;7.15;;;17.80;99.90;;;;;;5025628;28;20670;-79
2021/06/29 05:09:06;;;;;;;15.30;7.45;;;17.80;99.90;;;;;;5026797;28;20202;-84
2021/06/29 05:11:33;;;;;;;16.00;7.22;;;17.80;99.90;;;;;;5026344;28;20213;-80
2021/06/29 05:14:00;;;;;;;13.40;7.28;;;17.80;99.90;;;;;;5025386;28;20205;-80
2021/06/29 05:16:28;;;;;;;14.32;7.55;;;17.70;99.90;;;;;;5026004;28;20209;-82
2021/06/29 05:18:55;;;;;;;14.70;7.15;;;17.80;99.90;;;;;;5026329;28;20210;-81
2021/06/29 05:21:22;;;;;;;12.82;6.85;;;17.70;99.90;;;;;;5023976;28;20217;-81
2021/06/29 05:23:49;;;;;;;13.88;7.00;;;17.80;99.90;;;;;;5027467;28;20218;-82
2021/06/29 05:26:16;;;;;;;11.13;6.95;;;17.70;99.90;;;;;;5027031;28;20225;-80
2021/06/29 05:28:43;;;;;;;13.43;6.85;;;17.70;99.90;;;;;;5045250;28;20489;-80
2021/06/29 05:31:10;;;;;;;11.38;7.53;;;17.80;99.90;;;;;;5046710;28;20202;-83
2021/06/29 05:33:38;;;;;;;12.65;7.00;;;17.80;99.90;;;;;;5045831;28;20207;-82
2021/06/29 05:36:05;;;;;;;19.88;8.02;;;17.80;99.90;;;;;;5031228;28;20693;-81
2021/06/29 05:38:32;;;;;;;16.67;8.05;;;17.80;99.90;;;;;;5027742;28;20207;-83
2021/06/29 05:40:59;;;;;;;13.00;7.15;;;17.80;99.90;;;;;;5027459;28;20206;-80
2021/06/29 05:43:26;;;;;;;16.42;7.25;;;17.80;99.90;;;;;;5036471;28;20217;-82
2021/06/29 05:45:53;;;;;;;15.63;7.72;;;17.80;99.90;;;;;;5046459;28;20190;-82
2021/06/29 05:48:20;;;;;;;14.27;8.23;;;17.80;99.90;;;;;;5026233;28;20529;-84
2021/06/29 05:50:48;;;;;;;15.45;7.68;;;17.80;99.90;;;;;;5026323;28;20199;-82
2021/06/29 05:53:15;;;;;;;17.10;7.85;;;17.90;99.90;;;;;;5025395;28;20517;-83
2021/06/29 05:55:42;;;;;;;16.60;8.30;;;17.90;99.90;;;;;;5027546;28;20211;-84
2021/06/29 05:58:10;;;;;;;22.35;9.13;;;17.90;99.90;;;;;;5028253;28;20199;-81
2021/06/29 06:00:37;;;;;;;22.23;8.68;;;17.90;99.90;;;;;;5026556;28;20202;-85
2021/06/29 06:03:04;;;;;;;13.25;7.28;;;17.90;99.90;;;;;;5024639;28;20885;-80
2021/06/29 06:05:31;;;;;;;19.25;8.65;;;18.00;99.90;;;;;;5026802;28;20202;-83
2021/06/29 06:07:59;;;;;;;17.85;8.00;;;18.00;99.90;;;;;;5025793;28;20237;-83
2021/06/29 06:10:26;;;;;;;21.63;9.82;;;18.10;99.90;;;;;;5026040;28;20198;-82
2021/06/29 06:12:53;;;;;;;19.05;9.65;;;18.00;99.90;;;;;;5025868;28;20546;-83
2021/06/29 06:15:20;;;;;;;22.98;10.05;;;18.10;99.90;;;;;;5026403;28;20202;-81
2021/06/29 06:17:48;;;;;;;18.30;10.10;;;18.10;99.90;;;;;;5025847;28;20888;-80
2021/06/29 06:20:14;;;;;;;15.50;9.60;;;18.10;99.90;;;;;;5024944;28;20206;-83
2021/06/29 06:22:41;;;;;;;24.83;10.80;;;18.10;99.90;;;;;;5026843;28;20325;-83
2021/06/29 06:25:10;;;;;;;20.95;11.50;;;18.20;99.90;;;;;;5025560;28;20205;-81
2021/06/29 06:27:37;;;;;;;19.67;9.57;;;18.10;99.90;;;;;;5025663;28;20222;-82
2021/06/29 06:30:04;;;;;;;18.50;10.88;;;18.20;99.90;;;;;;5024596;28;20199;-82
2021/06/29 06:32:31;;;;;;;18.08;10.50;;;18.20;99.90;;;;;;5024273;28;20801;-81
2021/06/29 06:34:58;;;;;;;15.68;10.27;;;18.20;99.90;;;;;;5023911;28;20206;-80
2021/06/29 06:37:25;;;;;;;18.33;10.30;;;18.20;99.90;;;;;;5024990;28;20202;-81
2021/06/29 06:39:51;;;;;;;15.95;10.88;;;18.30;99.90;;;;;;5026637;28;20541;-81
2021/06/29 06:42:20;;;;;;;20.02;10.85;;;18.20;99.90;;;;;;5024857;28;20218;-80
2021/06/29 06:44:46;;;;;;;21.45;10.18;;;18.30;99.90;;;;;;5022968;28;20233;-81
2021/06/29 06:47:13;;;;;;;19.33;10.45;;;18.30;99.90;;;;;;5030670;28;20224;-79
2021/06/29 06:49:40;;;;;;;17.77;10.48;;;18.30;99.90;;;;;;5044961;28;20499;-81
2021/06/29 06:52:08;;;;;;;16.17;10.35;;;18.30;99.90;;;;;;5039384;28;20785;-81
2021/06/29 06:54:35;;;;;;;22.38;11.35;;;18.30;99.90;;;;;;5023477;28;20313;-80
2021/06/29 06:57:02;;;;;;;11.32;9.07;;;18.30;99.90;;;;;;5022793;28;20230;-80
2021/06/29 06:59:30;;;;;;;17.60;10.27;;;18.40;99.90;;;;;;5021923;28;20210;-81
2021/06/29 07:01:57;;;;;;;17.60;11.02;;;18.40;99.90;;;;;;5022872;28;20213;-80
2021/06/29 07:04:24;;;;;;;13.75;9.00;;;18.40;99.90;;;;;;5023255;28;20298;-79
2021/06/29 07:06:50;;;;;;;16.02;9.82;;;18.40;99.90;;;;;;5023338;28;20214;-79
2021/06/29 07:09:17;;;;;;;15.05;9.95;;;18.30;99.90;;;;;;5023268;28;20594;-79
2021/06/29 07:11:44;;;;;;;17.15;9.82;;;18.40;99.90;;;;;;5022816;28;20210;-79
2021/06/29 07:14:12;;;;;;;17.67;9.70;;;18.40;99.90;;;;;;5023750;28;20210;-81
2021/06/29 07:16:40;;;;;;;13.52;9.60;;;18.40;99.90;;;;;;5042876;28;20273;-80
2021/06/29 07:19:07;;;;;;;13.68;9.50;;;18.40;99.90;;;;;;5040881;28;20213;-80
2021/06/29 07:21:34;;;;;;;18.45;11.02;;;18.30;99.90;;;;;;5023149;28;20645;-81
2021/06/29 07:24:01;;;;;;;16.27;10.32;;;18.30;99.90;;;;;;5029617;28;20214;-80
2021/06/29 07:26:28;;;;;;;18.08;11.30;;;18.40;99.90;;;;;;5041895;28;20202;-80
2021/06/29 07:28:55;;;;;;;24.05;12.13;;;18.30;99.90;;;;;;5034599;28;20657;-81
2021/06/29 07:31:22;;;;;;;20.88;11.48;;;18.30;99.90;;;;;;5022560;28;20206;-80
2021/06/29 07:33:50;;;;;;;23.77;12.50;;;18.30;99.90;;;;;;5022863;28;20209;-80
2021/06/29 07:36:20;;;;;;;22.02;11.60;;;18.30;99.90;;;;;;5022251;28;20256;-80
2021/06/29 07:38:47;;;;;;;17.45;10.60;;;18.30;99.90;;;;;;5022888;28;20714;-80
2021/06/29 07:41:15;;;;;;;15.23;11.15;;;18.20;99.90;;;;;;5022874;28;20214;-81
2021/06/29 07:43:42;;;;;;;19.17;12.68;;;18.20;99.90;;;;;;5023191;28;20229;-82
2021/06/29 07:46:09;;;;;;;25.67;13.27;;;18.20;99.90;;;;;;5023176;28;20524;-80
2021/06/29 07:48:36;;;;;;;25.13;13.10;;;18.20;99.90;;;;;;5022977;28;20218;-80
2021/06/29 07:51:06;;;;;;;23.88;11.50;;;18.20;99.90;;;;;;5023203;28;20207;-80
2021/06/29 07:53:33;;;;;;;21.20;11.20;;;18.20;99.90;;;;;;5033185;28;20210;-81
2021/06/29 07:56:00;;;;;;;19.10;11.70;;;18.20;99.90;;;;;;5022890;28;20242;-79
2021/06/29 07:58:28;;;;;;;18.17;12.63;;;18.20;99.90;;;;;;5025976;28;20205;-81
2021/06/29 08:00:55;;;;;;;24.02;13.25;;;18.30;99.90;;;;;;5025177;28;20304;-81
2021/06/29 08:03:22;;;;;;;27.55;12.65;;;18.30;99.90;;;;;;5027277;28;20207;-81
2021/06/29 08:05:49;;;;;;;18.45;11.70;;;18.30;99.90;;;;;;5028261;28;20221;-81
2021/06/29 08:08:17;;;;;;;23.75;12.48;;;18.30;99.90;;;;;;5031727;28;20222;-83
2021/06/29 08:10:44;;;;;;;19.50;11.70;;;18.30;99.90;;;;;;5045932;28;20209;-82
2021/06/29 08:13:11;;;;;;;22.60;12.90;;;18.20;99.90;;;;;;5044876;28;20186;-82
2021/06/29 08:15:38;;;;;;;18.42;11.75;;;18.20;99.90;;;;;;5048742;28;20225;-81
2021/06/29 08:18:05;;;;;;;17.48;11.98;;;18.20;99.90;;;;;;5036703;28;20202;-82
2021/06/29 08:20:32;;;;;;;18.20;11.25;;;18.20;99.90;;;;;;5027748;28;20206;-80
2021/06/29 08:23:00;;;;;;;21.58;11.68;;;18.30;99.90;;;;;;5040956;28;20601;-82
2021/06/29 08:25:29;;;;;;;19.83;10.65;;;18.30;99.90;;;;;;5047959;28;20562;-80
2021/06/29 08:27:56;;;;;;;18.17;12.30;;;18.30;99.90;;;;;;5046418;28;20229;-82
2021/06/29 08:30:23;;;;;;;17.27;11.48;;;18.40;99.90;;;;;;5047821;28;20198;-81
2021/06/29 08:32:49;;;;;;;18.45;11.32;;;18.40;99.90;;;;;;5029365;28;20217;-82
2021/06/29 08:35:17;;;;;;;19.70;12.10;;;18.50;99.90;;;;;;5028119;28;20203;-81
2021/06/29 08:37:44;;;;;;;16.58;11.52;;;18.60;99.90;;;;;;5028065;28;20213;-82
2021/06/29 08:40:13;;;;;;;18.23;10.68;;;18.50;99.90;;;;;;5028836;28;20211;-82
2021/06/29 08:42:42;;;;;;;19.85;12.40;;;18.60;99.90;;;;;;5030332;28;20207;-81
2021/06/29 08:45:11;;;;;;;19.05;11.55;;;18.60;99.90;;;;;;5028240;28;20223;-82
2021/06/29 08:47:38;;;;;;;17.08;12.40;;;18.70;99.90;;;;;;5028418;28;20227;-81
2021/06/29 08:50:06;;;;;;;18.08;11.10;;;18.80;99.90;;;;;;5027642;28;20248;-81
2021/06/29 08:52:34;;;;;;;16.77;10.90;;;18.80;99.90;;;;;;5027850;28;20225;-81
2021/06/29 08:55:01;;;;;;;19.13;10.75;;;18.80;99.90;;;;;;5026796;28;20202;-81
2021/06/29 08:57:28;;;;;;;14.07;9.82;;;18.80;99.90;;;;;;5025679;28;20245;-81
2021/06/29 08:59:58;;;;;;;17.30;10.85;;;18.90;99.90;;;;;;5026390;28;20213;-81
2021/06/29 09:02:25;;;;;;;12.95;8.88;;;18.80;99.90;;;;;;5026916;28;20206;-82
2021/06/29 09:04:55;;;;;;;17.67;10.15;;;18.90;99.90;;;;;;5027258;28;20215;-81
2021/06/29 09:07:24;;;;;;;17.48;10.40;;;18.90;99.90;;;;;;5027108;28;20379;-81
2021/06/29 09:09:54;;;;;;;14.68;9.70;;;19.00;99.90;;;;;;5026363;28;20219;-80
2021/06/29 09:12:45;;;;;;;15.45;10.95;;;19.00;99.90;;;;;;5042296;28;20213;-83
2021/06/29 09:15:30;;;;;;;15.60;9.75;;;19.00;99.90;;;;;;5049032;28;20649;-79
2021/06/29 09:18:10;;;;;;;11.15;9.18;;;19.00;99.90;;;;;;5032633;28;20207;-81
2021/06/29 09:20:39;;;;;;;15.00;10.75;;;19.00;99.90;;;;;;5027479;28;20210;-81
2021/06/29 09:23:11;;;;;;;13.23;9.43;;;18.90;99.90;;;;;;5061335;22;20240;-81
2021/06/29 09:25:40;;;;;;;15.32;8.93;;;19.00;99.90;;;;;;5062636;28;20290;-79
2021/06/29 09:28:07;;;;;;;12.68;9.65;;;19.00;99.90;;;;;;5065060;28;20217;-79
2021/06/29 09:30:40;;;;;;;12.55;8.98;;;19.10;99.90;;;;;;5067505;28;20683;-81
2021/06/29 09:33:09;;;;;;;16.02;9.82;;;19.10;99.90;;;;;;5063708;28;20648;-82
2021/06/29 09:35:36;;;;;;;15.55;9.00;;;19.10;99.90;;;;;;5064833;28;20806;-82
2021/06/29 09:38:04;;;;;;;15.77;9.48;;;19.00;99.90;;;;;;5064090;28;20213;-81
2021/06/29 09:40:33;;;;;;;12.73;8.82;;;19.00;99.90;;;;;;5063588;28;20820;-81
2021/06/29 09:43:15;;;;;;;17.20;10.27;;;19.00;99.90;;;;;;5064698;28;20198;-81
2021/06/29 09:45:46;;;;;;;14.43;8.77;;;19.00;99.90;;;;;;5044357;28;20951;-82
2021/06/29 09:48:15;;;;;;;12.43;7.57;;;18.90;99.90;;;;;;5028849;28;20358;-82
2021/06/29 09:50:47;;;;;;;15.50;8.73;;;18.90;99.90;;;;;;5024350;28;20830;-81
2021/06/29 09:53:19;;;;;;;21.33;8.75;;;18.90;99.90;;;;;;5023931;28;20903;-82
2021/06/29 09:55:47;;;;;;;13.30;7.40;;;18.90;99.90;;;;;;5024063;28;20203;-81
2021/06/29 09:58:16;;;;;;;11.27;8.13;;;18.90;99.90;;;;;;5022686;28;20262;-81
2021/06/29 10:00:50;;;;;;;19.30;8.73;;;18.80;99.90;;;;;;5023283;28;20218;-83
2021/06/29 10:03:20;;;;;;;15.35;7.68;;;18.80;99.90;;;;;;5023523;28;20936;-81
2021/06/29 10:05:47;;;;;;;16.98;7.72;;;18.80;99.90;;;;;;5025170;28;20225;-82
2021/06/29 10:08:26;;;;;;;14.80;8.07;;;18.80;99.90;;;;;;5023766;28;20288;-85
2021/06/29 10:11:08;;;;;;;16.70;7.40;;;18.80;99.90;;;;;;5024594;28;20198;-83
2021/06/29 10:13:36;;;;;;;16.20;7.22;;;18.80;99.90;;;;;;5024176;28;20206;-83
2021/06/29 10:16:08;;;;;;;15.73;8.23;;;18.80;99.90;;;;;;5037508;28;20214;-82
2021/06/29 10:18:38;;;;;;;17.95;8.23;;;18.90;99.90;;;;;;5025820;28;20285;-83
2021/06/29 10:21:17;;;;;;;12.98;7.07;;;18.80;99.90;;;;;;5031462;28;20212;-82
2021/06/29 10:23:44;;;;;;;15.10;7.32;;;18.70;99.90;;;;;;5045067;28;20267;-84
2021/06/29 10:26:12;;;;;;;15.88;7.47;;;18.80;99.90;;;;;;5027985;28;20206;-83
2021/06/29 10:28:39;;;;;;;14.98;7.90;;;18.70;99.90;;;;;;5024192;28;20228;-80
2021/06/29 10:31:08;;;;;;;12.07;7.15;;;18.70;99.90;;;;;;5024441;28;20205;-81
2021/06/29 10:33:36;;;;;;;12.90;6.35;;;18.70;99.90;;;;;;5030789;28;20208;-81
2021/06/29 10:36:04;;;;;;;11.43;7.25;;;18.70;99.90;;;;;;5054466;28;20210;-82
2021/06/29 10:38:31;;;;;;;12.13;7.00;;;18.70;99.90;;;;;;5050028;28;20213;-82
2021/06/29 10:40:58;;;;;;;13.27;6.70;;;18.80;99.90;;;;;;5045799;28;20532;-83
2021/06/29 10:43:25;;;;;;;8.25;5.85;;;18.90;99.90;;;;;;5036003;28;20252;-84
2021/06/29 10:45:53;;;;;;;15.10;6.07;;;18.90;99.90;;;;;;5028075;28;20284;-84
2021/06/29 10:48:24;;;;;;;10.20;5.65;;;19.00;99.90;;;;;;5025970;28;20226;-84
2021/06/29 10:50:54;;;;;;;12.05;5.40;;;19.00;99.90;;;;;;5024325;28;20213;-83
2021/06/29 10:53:35;;;;;;;10.43;5.95;;;19.10;99.90;;;;;;5028586;28;20197;-86
2021/06/29 10:56:03;;;;;;;7.82;4.93;;;19.10;99.90;;;;;;5044216;28;20516;-83
2021/06/29 10:58:42;;;;;;;4.80;4.03;;;19.10;99.90;;;;;;5031526;28;20199;-83
2021/06/29 11:01:27;;;;;;;6.78;4.40;;;19.10;99.90;;;;;;5024242;28;20202;-83
2021/06/29 11:03:57;;;;;;;9.13;5.20;;;19.10;99.90;;;;;;5023882;28;20498;-83
2021/06/29 11:06:46;;;;;;;5.80;4.90;;;19.10;99.90;;;;;;5023951;28;20210;-83
2021/06/29 11:09:17;;;;;;;8.48;5.22;;;19.10;99.90;;;;;;5023280;28;20230;-81
2021/06/29 11:12:20;;;;;;;5.40;4.00;;;19.20;99.90;;;;;;5023418;28;20332;-85
2021/06/29 11:14:48;;;;;;;4.68;3.63;;;19.10;99.90;;;;;;5023605;28;20289;-82
2021/06/29 11:17:16;;;;;;;4.38;3.40;;;19.10;99.90;;;;;;5022234;28;20289;-82
2021/06/29 11:20:12;;;;;;;5.80;3.03;;;19.20;99.90;;;;;;5024025;28;20200;-83
2021/06/29 11:23:00;;;;;;;5.63;3.33;;;19.20;99.90;;;;;;5042015;28;20272;-87
2021/06/29 11:25:36;;;;;;;5.00;3.35;;;19.10;99.90;;;;;;5037481;28;20202;-84
2021/06/29 11:28:07;;;;;;;5.13;3.28;;;19.00;99.90;;;;;;5044437;28;20656;-84
2021/06/29 11:31:02;;;;;;;3.67;2.45;;;19.00;99.90;;;;;;5045281;28;20277;-80
2021/06/29 11:33:35;;;;;;;4.93;2.55;;;19.00;99.90;;;;;;5037417;28;20611;-81
2021/06/29 11:36:08;;;;;;;4.00;2.40;;;19.10;99.90;;;;;;5025281;28;20569;-85
2021/06/29 11:38:37;;;;;;;2.20;1.92;;;19.10;99.90;;;;;;5025078;28;20202;-83
2021/06/29 11:41:30;;;;;;;2.95;2.47;;;19.10;99.90;;;;;;5023928;28;20209;-82
2021/06/29 11:44:38;;;;;;;2.25;2.05;;;19.10;99.90;;;;;;5025279;28;20234;-84
2021/06/29 11:47:09;;;;;;;3.40;2.60;;;19.00;99.90;;;;;;5025341;28;20194;-82
2021/06/29 11:49:39;;;;;;;4.22;2.33;;;19.00;99.90;;;;;;5028105;28;20801;-83
2021/06/29 11:52:18;;;;;;;5.82;3.22;;;19.00;99.90;;;;;;5030784;28;20598;-83
2021/06/29 11:54:50;;;;;;;3.47;3.15;;;18.90;99.90;;;;;;5049211;28;20209;-86
2021/06/29 11:57:19;;;;;;;4.22;3.42;;;18.80;99.90;;;;;;5037892;28;20202;-82
2021/06/29 11:59:46;;;;;;;5.13;3.67;;;18.70;99.90;;;;;;5027899;28;20206;-84
2021/06/29 12:02:18;;;;;;;4.53;4.13;;;18.70;99.90;;;;;;5029387;28;20207;-84
2021/06/29 12:04:57;;;;;;;6.45;4.85;;;18.60;99.90;;;;;;5044767;28;20209;-83
2021/06/29 12:07:34;;;;;;;5.22;4.70;;;18.60;99.90;;;;;;5048929;28;20201;-84
2021/06/29 12:10:01;;;;;;;5.70;4.47;;;18.60;99.90;;;;;;5049099;28;20324;-83
2021/06/29 12:12:29;;;;;;;5.72;4.70;;;18.70;99.90;;;;;;5049493;28;20225;-80
2021/06/29 12:15:05;;;;;;;6.40;5.28;;;18.70;99.90;;;;;;5047295;28;20201;-82
2021/06/29 12:17:34;;;;;;;8.05;4.88;;;18.70;99.90;;;;;;5048502;28;20201;-84
2021/06/29 12:20:04;;;;;;;6.00;5.00;;;18.60;99.90;;;;;;5047514;28;20212;-82
2021/06/29 12:22:34;;;;;;;6.32;4.63;;;18.60;99.90;;;;;;5027834;28;20242;-82
2021/06/29 12:25:09;;;;;;;7.10;5.15;;;18.60;99.90;;;;;;5026352;28;20206;-83
2021/06/29 12:27:43;;;;;;;8.25;5.25;;;18.70;99.90;;;;;;5028190;28;20194;-81
2021/06/29 12:30:35;;;;;;;8.25;5.30;;;18.60;99.90;;;;;;5025800;28;20543;-82
2021/06/29 12:33:13;;;;;;;7.30;4.80;;;18.60;99.90;;;;;;5012123;28;20211;-84
2021/06/29 12:35:40;;;;;;;5.38;4.88;;;18.60;99.90;;;;;;5026813;28;20202;-81
2021/06/29 12:38:12;;;;;;;7.20;5.10;;;18.50;99.90;;;;;;5025297;28;20211;-84
2021/06/29 12:40:40;;;;;;;6.78;5.07;;;18.50;99.90;;;;;;5026119;28;20535;-83
2021/06/29 12:43:21;;;;;;;7.20;4.47;;;18.50;99.90;;;;;;5025385;28;20195;-85